sensor_id;sensor_type;location;lat;lon;timestamp;pressure;altitude;pressure_sealevel;temperature;humidity
4617;BME280;2321;42.704;23.384;2023-03-19T00:00:02;96008.38;;;2.72;100.00
4617;BME280;2321;42.704;23.384;2023-03-19T00:02:30;96006.88;;;2.58;100.00
4617;BME280;2321;42.704;23.384;2023-03-19T00:04:56;95999.06;;;2.46;100.00
4617;BME280;2321;42.704;23.384;2023-03-19T00:07:23;96000.97;;;2.44;100.00
4617;BME280;2321;42.704;23.384;2023-03-19T00:09:50;95997.06;;;2.38;100.00
4617;BME280;2321;42.704;23.384;2023-03-19T00:12:17;95993.47;;;2.39;100.00
4617;BME280;2321;42.704;23.384;2023-03-19T00:14:45;95997.31;;;2.35;100.00
4617;BME280;2321;42.704;23.384;2023-03-19T00:17:12;95992.66;;;2.39;100.00
4617;BME280;2321;42.704;23.384;2023-03-19T00:19:39;95997.06;;;2.38;100.00
4617;BME280;2321;42.704;23.384;2023-03-19T00:22:06;95997.31;;;2.35;100.00
4617;BME280;2321;42.704;23.384;2023-03-19T00:24:33;95994.63;;;2.47;100.00
4617;BME280;2321;42.704;23.384;2023-03-19T00:27:00;95998.41;;;2.33;100.00
4617;BME280;2321;42.704;23.384;2023-03-19T00:29:28;95988.94;;;2.30;100.00
4617;BME280;2321;42.704;23.384;2023-03-19T00:31:56;95984.34;;;2.22;100.00
4617;BME280;2321;42.704;23.384;2023-03-19T00:34:23;95984.22;;;2.24;100.00
4617;BME280;2321;42.704;23.384;2023-03-19T00:36:50;95983.19;;;2.36;100.00
4617;BME280;2321;42.704;23.384;2023-03-19T00:39:17;95978.97;;;2.24;100.00
4617;BME280;2321;42.704;23.384;2023-03-19T00:41:46;95972.53;;;2.16;100.00
4617;BME280;2321;42.704;23.384;2023-03-19T00:44:15;95974.56;;;2.13;100.00
4617;BME280;2321;42.704;23.384;2023-03-19T00:46:42;95974.31;;;2.16;100.00
4617;BME280;2321;42.704;23.384;2023-03-19T00:49:10;95968.22;;;2.15;100.00
4617;BME280;2321;42.704;23.384;2023-03-19T00:51:37;95962.88;;;2.17;100.00
4617;BME280;2321;42.704;23.384;2023-03-19T00:54:09;95976.41;;;2.01;100.00
4617;BME280;2321;42.704;23.384;2023-03-19T00:56:37;95970.06;;;2.03;100.00
4617;BME280;2321;42.704;23.384;2023-03-19T00:59:04;95971.59;;;2.06;100.00
4617;BME280;2321;42.704;23.384;2023-03-19T01:01:32;95966.34;;;2.06;100.00
4617;BME280;2321;42.704;23.384;2023-03-19T01:03:59;95972.00;;;2.01;100.00
4617;BME280;2321;42.704;23.384;2023-03-19T01:06:27;95966.53;;;1.93;100.00
4617;BME280;2321;42.704;23.384;2023-03-19T01:08:54;95963.06;;;1.92;100.00
4617;BME280;2321;42.704;23.384;2023-03-19T01:11:21;95962.81;;;1.95;100.00
4617;BME280;2321;42.704;23.384;2023-03-19T01:13:48;95958.00;;;2.01;100.00
4617;BME280;2321;42.704;23.384;2023-03-19T01:16:14;95957.44;;;1.97;100.00
4617;BME280;2321;42.704;23.384;2023-03-19T01:18:41;95960.44;;;1.92;100.00
4617;BME280;2321;42.704;23.384;2023-03-19T01:21:08;95952.91;;;1.88;100.00
4617;BME280;2321;42.704;23.384;2023-03-19T01:23:37;95963.41;;;1.88;100.00
4617;BME280;2321;42.704;23.384;2023-03-19T01:26:04;95957.25;;;1.77;100.00
4617;BME280;2321;42.704;23.384;2023-03-19T01:28:31;95959.75;;;1.79;100.00
4617;BME280;2321;42.704;23.384;2023-03-19T01:30:59;95951.28;;;1.75;100.00
4617;BME280;2321;42.704;23.384;2023-03-19T01:33:26;95949.72;;;1.72;100.00
4617;BME280;2321;42.704;23.384;2023-03-19T01:35:53;95952.13;;;1.64;100.00
4617;BME280;2321;42.704;23.384;2023-03-19T01:38:22;95944.13;;;1.66;100.00
4617;BME280;2321;42.704;23.384;2023-03-19T01:40:51;95950.47;;;1.63;100.00
4617;BME280;2321;42.704;23.384;2023-03-19T01:43:19;95950.94;;;1.57;100.00
4617;BME280;2321;42.704;23.384;2023-03-19T01:45:48;95951.94;;;1.56;100.00
4617;BME280;2321;42.704;23.384;2023-03-19T01:48:20;95952.06;;;1.43;100.00
4617;BME280;2321;42.704;23.384;2023-03-19T01:50:51;95952.53;;;1.36;100.00
4617;BME280;2321;42.704;23.384;2023-03-19T01:53:22;95922.38;;;1.19;100.00
4617;BME280;2321;42.704;23.384;2023-03-19T01:55:54;95955.41;;;1.22;100.00
4617;BME280;2321;42.704;23.384;2023-03-19T01:58:22;95963.38;;;1.08;100.00
4617;BME280;2321;42.704;23.384;2023-03-19T02:00:51;95958.28;;;1.07;100.00
4617;BME280;2321;42.704;23.384;2023-03-19T02:03:18;95953.75;;;0.97;100.00
4617;BME280;2321;42.704;23.384;2023-03-19T02:05:46;95948.97;;;1.03;100.00
4617;BME280;2321;42.704;23.384;2023-03-19T02:08:16;95946.09;;;1.06;100.00
4617;BME280;2321;42.704;23.384;2023-03-19T02:10:44;95956.34;;;1.09;100.00
4617;BME280;2321;42.704;23.384;2023-03-19T02:13:13;95960.28;;;0.92;100.00
4617;BME280;2321;42.704;23.384;2023-03-19T02:15:40;95964.69;;;0.91;100.00
4617;BME280;2321;42.704;23.384;2023-03-19T02:18:07;95959.81;;;0.98;100.00
4617;BME280;2321;42.704;23.384;2023-03-19T02:20:43;95957.91;;;1.12;100.00
4617;BME280;2321;42.704;23.384;2023-03-19T02:23:19;95954.22;;;1.03;100.00
4617;BME280;2321;42.704;23.384;2023-03-19T02:25:59;95955.16;;;0.90;100.00
4617;BME280;2321;42.704;23.384;2023-03-19T02:28:29;95966.25;;;0.94;100.00
4617;BME280;2321;42.704;23.384;2023-03-19T02:30:58;95958.72;;;0.89;100.00
4617;BME280;2321;42.704;23.384;2023-03-19T02:33:25;95953.75;;;0.97;100.00
4617;BME280;2321;42.704;23.384;2023-03-19T02:35:53;95957.19;;;0.98;100.00
4617;BME280;2321;42.704;23.384;2023-03-19T02:38:23;95963.50;;;0.95;100.00
4617;BME280;2321;42.704;23.384;2023-03-19T02:40:51;95961.00;;;0.94;100.00
4617;BME280;2321;42.704;23.384;2023-03-19T02:43:21;95958.25;;;0.84;100.00
4617;BME280;2321;42.704;23.384;2023-03-19T02:45:48;95963.63;;;0.94;100.00
4617;BME280;2321;42.704;23.384;2023-03-19T02:48:15;95962.66;;;0.83;100.00
4617;BME280;2321;42.704;23.384;2023-03-19T02:50:42;95961.69;;;0.73;100.00
4617;BME280;2321;42.704;23.384;2023-03-19T02:53:09;95965.72;;;0.65;100.00
4617;BME280;2321;42.704;23.384;2023-03-19T02:55:36;95963.81;;;0.68;100.00
4617;BME280;2321;42.704;23.384;2023-03-19T02:58:03;95966.94;;;0.73;100.00
4617;BME280;2321;42.704;23.384;2023-03-19T03:00:32;95966.19;;;0.71;100.00
4617;BME280;2321;42.704;23.384;2023-03-19T03:02:59;95976.69;;;0.71;100.00
4617;BME280;2321;42.704;23.384;2023-03-19T03:05:27;95973.81;;;0.62;100.00
4617;BME280;2321;42.704;23.384;2023-03-19T03:07:54;95974.00;;;0.48;100.00
4617;BME280;2321;42.704;23.384;2023-03-19T03:10:21;95982.19;;;0.43;100.00
4617;BME280;2321;42.704;23.384;2023-03-19T03:12:47;95980.56;;;0.42;100.00
4617;BME280;2321;42.704;23.384;2023-03-19T03:15:14;95987.81;;;0.50;100.00
4617;BME280;2321;42.704;23.384;2023-03-19T03:17:43;95984.44;;;0.61;100.00
4617;BME280;2321;42.704;23.384;2023-03-19T03:20:12;95986.66;;;0.54;100.00
4617;BME280;2321;42.704;23.384;2023-03-19T03:22:39;95994.53;;;0.54;100.00
4617;BME280;2321;42.704;23.384;2023-03-19T03:25:07;95990.34;;;0.51;100.00
4617;BME280;2321;42.704;23.384;2023-03-19T03:27:34;95990.72;;;0.58;100.00
4617;BME280;2321;42.704;23.384;2023-03-19T03:30:02;95992.63;;;0.56;100.00
4617;BME280;2321;42.704;23.384;2023-03-19T03:32:29;95992.63;;;0.56;100.00
4617;BME280;2321;42.704;23.384;2023-03-19T03:34:57;95986.66;;;0.54;100.00
4617;BME280;2321;42.704;23.384;2023-03-19T03:37:24;95986.66;;;0.54;100.00
4617;BME280;2321;42.704;23.384;2023-03-19T03:39:51;95996.06;;;0.57;100.00
4617;BME280;2321;42.704;23.384;2023-03-19T03:42:18;95998.47;;;0.60;100.00
4617;BME280;2321;42.704;23.384;2023-03-19T03:44:45;95998.94;;;0.65;100.00
4617;BME280;2321;42.704;23.384;2023-03-19T03:47:12;96000.84;;;0.63;100.00
4617;BME280;2321;42.704;23.384;2023-03-19T03:49:39;95998.38;;;0.61;100.00
4617;BME280;2321;42.704;23.384;2023-03-19T03:52:08;95998.59;;;0.58;100.00
4617;BME280;2321;42.704;23.384;2023-03-19T03:54:35;96008.47;;;0.54;100.00
4617;BME280;2321;42.704;23.384;2023-03-19T03:57:02;96001.59;;;0.40;100.00
4617;BME280;2321;42.704;23.384;2023-03-19T03:59:29;96003.00;;;0.58;100.00
4617;BME280;2321;42.704;23.384;2023-03-19T04:01:56;96010.41;;;0.64;100.00
4617;BME280;2321;42.704;23.384;2023-03-19T04:04:23;96004.66;;;0.59;100.00
4617;BME280;2321;42.704;23.384;2023-03-19T04:06:50;96004.78;;;0.57;100.00
4617;BME280;2321;42.704;23.384;2023-03-19T04:09:18;96003.31;;;0.53;100.00
4617;BME280;2321;42.704;23.384;2023-03-19T04:11:45;95997.75;;;0.58;100.00
4617;BME280;2321;42.704;23.384;2023-03-19T04:14:12;95996.78;;;0.59;100.00
4617;BME280;2321;42.704;23.384;2023-03-19T04:16:38;96001.66;;;0.52;100.00
4617;BME280;2321;42.704;23.384;2023-03-19T04:19:06;96000.28;;;0.35;100.00
4617;BME280;2321;42.704;23.384;2023-03-19T04:21:33;95996.47;;;0.27;100.00
4617;BME280;2321;42.704;23.384;2023-03-19T04:24:00;95991.81;;;0.31;100.00
4617;BME280;2321;42.704;23.384;2023-03-19T04:26:28;96002.81;;;0.36;100.00
4617;BME280;2321;42.704;23.384;2023-03-19T04:28:57;96005.44;;;0.36;100.00
4617;BME280;2321;42.704;23.384;2023-03-19T04:31:24;96006.25;;;0.37;100.00
4617;BME280;2321;42.704;23.384;2023-03-19T04:33:50;96005.88;;;0.30;100.00
4617;BME280;2321;42.704;23.384;2023-03-19T04:36:17;96005.88;;;0.30;100.00
4617;BME280;2321;42.704;23.384;2023-03-19T04:38:44;96012.28;;;0.26;100.00
4617;BME280;2321;42.704;23.384;2023-03-19T04:41:12;96005.34;;;0.25;100.00
4617;BME280;2321;42.704;23.384;2023-03-19T04:43:41;96007.38;;;0.21;100.00
4617;BME280;2321;42.704;23.384;2023-03-19T04:46:09;96004.69;;;0.09;100.00
4617;BME280;2321;42.704;23.384;2023-03-19T04:48:36;96012.75;;;0.06;100.00
4617;BME280;2321;42.704;23.384;2023-03-19T04:51:04;96005.09;;;0.16;100.00
4617;BME280;2321;42.704;23.384;2023-03-19T04:53:33;96002.59;;;0.15;100.00
4617;BME280;2321;42.704;23.384;2023-03-19T04:56:00;96003.88;;;0.09;100.00
4617;BME280;2321;42.704;23.384;2023-03-19T04:58:27;96004.69;;;0.09;100.00
4617;BME280;2321;42.704;23.384;2023-03-19T05:00:55;96005.75;;;0.07;100.00
4617;BME280;2321;42.704;23.384;2023-03-19T05:03:22;96011.13;;;0.05;100.00
4617;BME280;2321;42.704;23.384;2023-03-19T05:05:48;96014.13;;;0.12;100.00
4617;BME280;2321;42.704;23.384;2023-03-19T05:08:15;96008.75;;;0.14;100.00
4617;BME280;2321;42.704;23.384;2023-03-19T05:10:42;96013.44;;;0.21;100.00
4617;BME280;2321;42.704;23.384;2023-03-19T05:13:09;96012.41;;;0.24;100.00
4617;BME280;2321;42.704;23.384;2023-03-19T05:15:36;96011.22;;;0.28;100.00
4617;BME280;2321;42.704;23.384;2023-03-19T05:18:04;96015.06;;;0.36;100.00
4617;BME280;2321;42.704;23.384;2023-03-19T05:20:32;96025.34;;;0.50;100.00
4617;BME280;2321;42.704;23.384;2023-03-19T05:22:59;96022.19;;;0.58;100.00
4617;BME280;2321;42.704;23.384;2023-03-19T05:25:27;96024.22;;;0.66;100.00
4617;BME280;2321;42.704;23.384;2023-03-19T05:27:54;96017.44;;;0.75;100.00
4617;BME280;2321;42.704;23.384;2023-03-19T05:30:21;96020.78;;;0.77;100.00
4617;BME280;2321;42.704;23.384;2023-03-19T05:32:48;96020.22;;;0.85;100.00
4617;BME280;2321;42.704;23.384;2023-03-19T05:35:17;96022.03;;;0.96;100.00
4617;BME280;2321;42.704;23.384;2023-03-19T05:37:44;96019.63;;;1.04;100.00
4617;BME280;2321;42.704;23.384;2023-03-19T05:40:11;96021.94;;;1.09;100.00
4617;BME280;2321;42.704;23.384;2023-03-19T05:42:38;96018.94;;;1.14;100.00
4617;BME280;2321;42.704;23.384;2023-03-19T05:45:06;96021.22;;;1.18;100.00
4617;BME280;2321;42.704;23.384;2023-03-19T05:47:33;96035.19;;;1.19;100.00
4617;BME280;2321;42.704;23.384;2023-03-19T05:49:59;96024.22;;;1.25;100.00
4617;BME280;2321;42.704;23.384;2023-03-19T05:52:28;96028.63;;;1.36;100.00
4617;BME280;2321;42.704;23.384;2023-03-19T05:54:54;96026.97;;;1.47;100.00
4617;BME280;2321;42.704;23.384;2023-03-19T05:57:21;96026.13;;;1.46;100.00
4617;BME280;2321;42.704;23.384;2023-03-19T05:59:48;96023.63;;;1.56;100.00
4617;BME280;2321;42.704;23.384;2023-03-19T06:02:15;96028.50;;;1.72;100.00
4617;BME280;2321;42.704;23.384;2023-03-19T06:04:43;96024.91;;;1.85;100.00
4617;BME280;2321;42.704;23.384;2023-03-19T06:07:10;96018.09;;;1.94;100.00
4617;BME280;2321;42.704;23.384;2023-03-19T06:09:39;96012.81;;;2.05;100.00
4617;BME280;2321;42.704;23.384;2023-03-19T06:12:07;96016.16;;;2.08;100.00
4617;BME280;2321;42.704;23.384;2023-03-19T06:14:34;96020.41;;;2.20;100.00
4617;BME280;2321;42.704;23.384;2023-03-19T06:17:01;96014.97;;;2.33;100.00
4617;BME280;2321;42.704;23.384;2023-03-19T06:19:28;96014.56;;;2.49;100.00
4617;BME280;2321;42.704;23.384;2023-03-19T06:21:55;96020.63;;;2.61;100.00
4617;BME280;2321;42.704;23.384;2023-03-19T06:24:21;96020.69;;;2.71;100.00
4617;BME280;2321;42.704;23.384;2023-03-19T06:26:50;96028.66;;;2.81;100.00
4617;BME280;2321;42.704;23.384;2023-03-19T06:29:17;96027.63;;;2.94;100.00
4617;BME280;2321;42.704;23.384;2023-03-19T06:31:43;96025.88;;;3.04;100.00
4617;BME280;2321;42.704;23.384;2023-03-19T06:34:10;96032.75;;;3.17;100.00
4617;BME280;2321;42.704;23.384;2023-03-19T06:36:38;96032.56;;;3.30;100.00
4617;BME280;2321;42.704;23.384;2023-03-19T06:39:05;96036.50;;;3.46;100.00
4617;BME280;2321;42.704;23.384;2023-03-19T06:41:32;96040.41;;;3.52;100.00
4617;BME280;2321;42.704;23.384;2023-03-19T06:44:00;96047.06;;;3.56;100.00
4617;BME280;2321;42.704;23.384;2023-03-19T06:46:27;96042.25;;;3.61;100.00
4617;BME280;2321;42.704;23.384;2023-03-19T06:48:54;96044.09;;;3.70;100.00
4617;BME280;2321;42.704;23.384;2023-03-19T06:51:21;96045.53;;;3.85;100.00
4617;BME280;2321;42.704;23.384;2023-03-19T06:53:47;96046.84;;;4.10;100.00
4617;BME280;2321;42.704;23.384;2023-03-19T06:56:14;96056.03;;;4.26;100.00
4617;BME280;2321;42.704;23.384;2023-03-19T06:58:41;96054.13;;;4.38;97.26
4617;BME280;2321;42.704;23.384;2023-03-19T07:01:09;96058.69;;;4.46;93.70
4617;BME280;2321;42.704;23.384;2023-03-19T07:03:36;96056.34;;;4.53;92.40
4617;BME280;2321;42.704;23.384;2023-03-19T07:06:03;96056.06;;;4.56;91.18
4617;BME280;2321;42.704;23.384;2023-03-19T07:08:31;96060.91;;;4.61;90.42
4617;BME280;2321;42.704;23.384;2023-03-19T07:11:02;96056.22;;;4.74;88.82
4617;BME280;2321;42.704;23.384;2023-03-19T07:13:29;96049.13;;;4.85;90.46
4617;BME280;2321;42.704;23.384;2023-03-19T07:15:57;96057.88;;;4.95;89.85
4617;BME280;2321;42.704;23.384;2023-03-19T07:18:26;96053.16;;;5.09;90.83
4617;BME280;2321;42.704;23.384;2023-03-19T07:20:53;96059.22;;;5.29;90.04
4617;BME280;2321;42.704;23.384;2023-03-19T07:23:20;96054.84;;;5.48;90.34
4617;BME280;2321;42.704;23.384;2023-03-19T07:25:47;96057.16;;;5.61;86.21
4617;BME280;2321;42.704;23.384;2023-03-19T07:28:14;96047.97;;;5.65;78.07
4617;BME280;2321;42.704;23.384;2023-03-19T07:30:41;96054.81;;;5.58;77.41
4617;BME280;2321;42.704;23.384;2023-03-19T07:33:08;96057.44;;;5.58;78.20
4617;BME280;2321;42.704;23.384;2023-03-19T07:35:36;96046.19;;;5.56;78.89
4617;BME280;2321;42.704;23.384;2023-03-19T07:38:03;96050.34;;;5.59;81.71
4617;BME280;2321;42.704;23.384;2023-03-19T07:40:30;96051.00;;;5.71;80.18
4617;BME280;2321;42.704;23.384;2023-03-19T07:42:57;96039.28;;;5.83;79.65
4617;BME280;2321;42.704;23.384;2023-03-19T07:45:24;96040.47;;;5.99;80.71
4617;BME280;2321;42.704;23.384;2023-03-19T07:47:51;96050.13;;;6.18;74.42
4617;BME280;2321;42.704;23.384;2023-03-19T07:50:18;96048.25;;;6.29;72.96
4617;BME280;2321;42.704;23.384;2023-03-19T07:52:46;96049.09;;;6.29;75.11
4617;BME280;2321;42.704;23.384;2023-03-19T07:55:14;96044.34;;;6.33;74.85
4617;BME280;2321;42.704;23.384;2023-03-19T07:57:41;96045.16;;;6.34;74.28
4617;BME280;2321;42.704;23.384;2023-03-19T08:00:09;96036.56;;;6.31;74.79
4617;BME280;2321;42.704;23.384;2023-03-19T08:02:37;96041.84;;;6.31;73.93
4617;BME280;2321;42.704;23.384;2023-03-19T08:05:04;96041.75;;;6.41;74.33
4617;BME280;2321;42.704;23.384;2023-03-19T08:07:32;96038.38;;;6.49;73.90
4617;BME280;2321;42.704;23.384;2023-03-19T08:10:00;96040.03;;;6.50;71.03
4617;BME280;2321;42.704;23.384;2023-03-19T08:12:28;96037.47;;;6.59;70.64
4617;BME280;2321;42.704;23.384;2023-03-19T08:14:56;96039.66;;;6.63;67.81
4617;BME280;2321;42.704;23.384;2023-03-19T08:17:23;96044.66;;;6.67;67.04
4617;BME280;2321;42.704;23.384;2023-03-19T08:19:50;96034.00;;;6.77;66.15
4617;BME280;2321;42.704;23.384;2023-03-19T08:22:17;96041.03;;;6.86;65.37
4617;BME280;2321;42.704;23.384;2023-03-19T08:24:44;96039.41;;;6.93;64.86
4617;BME280;2321;42.704;23.384;2023-03-19T08:27:12;96038.38;;;6.86;63.31
4617;BME280;2321;42.704;23.384;2023-03-19T08:29:39;96041.09;;;6.94;65.28
4617;BME280;2321;42.704;23.384;2023-03-19T08:32:06;96027.47;;;7.07;62.27
4617;BME280;2321;42.704;23.384;2023-03-19T08:34:33;96026.38;;;7.18;64.88
4617;BME280;2321;42.704;23.384;2023-03-19T08:37:00;96003.22;;;7.21;64.19
4617;BME280;2321;42.704;23.384;2023-03-19T08:39:27;96029.91;;;7.54;65.20
4617;BME280;2321;42.704;23.384;2023-03-19T08:41:54;96028.31;;;7.70;64.49
4617;BME280;2321;42.704;23.384;2023-03-19T08:44:23;96027.50;;;7.69;61.45
4617;BME280;2321;42.704;23.384;2023-03-19T08:46:50;96029.47;;;7.67;60.60
4617;BME280;2321;42.704;23.384;2023-03-19T08:49:17;96028.00;;;7.73;59.90
4617;BME280;2321;42.704;23.384;2023-03-19T08:51:44;96013.09;;;7.72;59.94
4617;BME280;2321;42.704;23.384;2023-03-19T08:54:11;96013.31;;;7.79;60.44
4617;BME280;2321;42.704;23.384;2023-03-19T08:56:38;96009.50;;;7.81;61.08
4617;BME280;2321;42.704;23.384;2023-03-19T08:59:05;96002.41;;;7.99;63.04
4617;BME280;2321;42.704;23.384;2023-03-19T09:01:34;95999.31;;;8.12;61.67
4617;BME280;2321;42.704;23.384;2023-03-19T09:04:01;95998.53;;;8.36;58.78
4617;BME280;2321;42.704;23.384;2023-03-19T09:06:27;95996.22;;;8.50;54.83
4617;BME280;2321;42.704;23.384;2023-03-19T09:08:54;95991.75;;;8.59;54.23
4617;BME280;2321;42.704;23.384;2023-03-19T09:11:21;95992.97;;;8.65;53.58
4617;BME280;2321;42.704;23.384;2023-03-19T09:13:48;95985.84;;;8.74;50.40
4617;BME280;2321;42.704;23.384;2023-03-19T09:16:15;95987.66;;;8.81;48.10
4617;BME280;2321;42.704;23.384;2023-03-19T09:18:44;95978.16;;;8.96;48.72
4617;BME280;2321;42.704;23.384;2023-03-19T09:21:11;95983.28;;;9.14;47.88
4617;BME280;2321;42.704;23.384;2023-03-19T09:23:38;95977.81;;;9.24;50.04
4617;BME280;2321;42.704;23.384;2023-03-19T09:26:04;95983.25;;;9.39;49.69
4617;BME280;2321;42.704;23.384;2023-03-19T09:28:31;95984.06;;;9.56;46.77
4617;BME280;2321;42.704;23.384;2023-03-19T09:30:58;95983.03;;;9.66;45.95
4617;BME280;2321;42.704;23.384;2023-03-19T09:33:31;95980.63;;;9.79;44.75
4617;BME280;2321;42.704;23.384;2023-03-19T09:36:00;95981.56;;;9.95;44.48
4617;BME280;2321;42.704;23.384;2023-03-19T09:38:27;95975.25;;;9.96;43.79
4617;BME280;2321;42.704;23.384;2023-03-19T09:41:06;95963.09;;;10.02;46.39
4617;BME280;2321;42.704;23.384;2023-03-19T09:43:44;95968.97;;;10.21;44.81
4617;BME280;2321;42.704;23.384;2023-03-19T09:46:19;95974.88;;;10.31;44.07
4617;BME280;2321;42.704;23.384;2023-03-19T09:48:51;95974.00;;;10.39;44.75
4617;BME280;2321;42.704;23.384;2023-03-19T09:51:26;95969.34;;;10.41;44.86
4617;BME280;2321;42.704;23.384;2023-03-19T09:53:58;95964.97;;;10.49;44.47
4617;BME280;2321;42.704;23.384;2023-03-19T09:56:25;95961.38;;;10.65;45.82
4617;BME280;2321;42.704;23.384;2023-03-19T09:58:52;95961.63;;;10.94;44.94
4617;BME280;2321;42.704;23.384;2023-03-19T10:01:26;95964.50;;;11.07;44.65
4617;BME280;2321;42.704;23.384;2023-03-19T10:06:56;95956.25;;;11.32;44.40
4617;BME280;2321;42.704;23.384;2023-03-19T10:09:40;95945.97;;;11.44;43.52
4617;BME280;2321;42.704;23.384;2023-03-19T10:12:23;95951.41;;;11.51;45.02
4617;BME280;2321;42.704;23.384;2023-03-19T10:15:13;95938.50;;;11.70;42.84
4617;BME280;2321;42.704;23.384;2023-03-19T10:17:48;95940.06;;;11.80;42.28
4617;BME280;2321;42.704;23.384;2023-03-19T10:20:25;95927.72;;;11.79;41.74
4617;BME280;2321;42.704;23.384;2023-03-19T10:22:59;95934.25;;;11.91;44.36
4617;BME280;2321;42.704;23.384;2023-03-19T10:25:31;95927.47;;;12.11;43.56
4617;BME280;2321;42.704;23.384;2023-03-19T10:28:04;95919.28;;;12.12;42.32
4617;BME280;2321;42.704;23.384;2023-03-19T10:30:34;95909.91;;;12.16;44.73
4617;BME280;2321;42.704;23.384;2023-03-19T10:33:06;95914.75;;;12.28;43.19
4617;BME280;2321;42.704;23.384;2023-03-19T10:35:42;95910.94;;;12.37;42.27
4617;BME280;2321;42.704;23.384;2023-03-19T10:38:19;95902.78;;;12.46;43.67
4617;BME280;2321;42.704;23.384;2023-03-19T10:40:55;95900.69;;;12.63;42.64
4617;BME280;2321;42.704;23.384;2023-03-19T10:43:29;95901.38;;;12.72;42.71
4617;BME280;2321;42.704;23.384;2023-03-19T10:45:58;95888.75;;;12.88;43.22
4617;BME280;2321;42.704;23.384;2023-03-19T10:48:26;95881.19;;;12.98;41.48
4617;BME280;2321;42.704;23.384;2023-03-19T10:50:56;95875.66;;;13.00;40.30
4617;BME280;2321;42.704;23.384;2023-03-19T10:53:31;95874.84;;;12.99;40.62
4617;BME280;2321;42.704;23.384;2023-03-19T10:56:01;95873.22;;;13.05;39.79
4617;BME280;2321;42.704;23.384;2023-03-19T10:58:30;95864.81;;;13.08;39.80
4617;BME280;2321;42.704;23.384;2023-03-19T11:01:04;95862.84;;;13.24;40.15
4617;BME280;2321;42.704;23.384;2023-03-19T11:03:33;95852.84;;;13.39;39.76
4617;BME280;2321;42.704;23.384;2023-03-19T11:06:06;95847.94;;;13.50;40.06
4617;BME280;2321;42.704;23.384;2023-03-19T11:08:39;95849.44;;;13.59;40.63
4617;BME280;2321;42.704;23.384;2023-03-19T11:11:22;95840.63;;;13.66;40.06
4617;BME280;2321;42.704;23.384;2023-03-19T11:13:49;95830.78;;;13.73;39.39
4617;BME280;2321;42.704;23.384;2023-03-19T11:16:16;95829.16;;;13.79;39.67
4617;BME280;2321;42.704;23.384;2023-03-19T11:18:46;95820.94;;;13.94;38.70
4617;BME280;2321;42.704;23.384;2023-03-19T11:21:25;95811.69;;;14.03;39.82
4617;BME280;2321;42.704;23.384;2023-03-19T11:24:00;95822.00;;;14.07;41.12
4617;BME280;2321;42.704;23.384;2023-03-19T11:26:28;95810.88;;;14.16;38.97
4617;BME280;2321;42.704;23.384;2023-03-19T11:29:00;95808.81;;;14.32;40.24
4617;BME280;2321;42.704;23.384;2023-03-19T11:31:33;95803.06;;;14.49;38.24
4617;BME280;2321;42.704;23.384;2023-03-19T11:34:13;95795.81;;;14.63;39.27
4617;BME280;2321;42.704;23.384;2023-03-19T11:36:49;95786.75;;;14.71;38.92
4617;BME280;2321;42.704;23.384;2023-03-19T11:39:26;95791.91;;;14.93;38.38
4617;BME280;2321;42.704;23.384;2023-03-19T11:42:03;95786.47;;;15.07;37.97
4617;BME280;2321;42.704;23.384;2023-03-19T11:44:38;95784.38;;;15.22;38.86
4617;BME280;2321;42.704;23.384;2023-03-19T11:47:20;95775.72;;;15.20;37.89
4617;BME280;2321;42.704;23.384;2023-03-19T11:50:02;95777.56;;;15.27;38.36
4617;BME280;2321;42.704;23.384;2023-03-19T11:52:52;95772.13;;;15.33;36.92
4617;BME280;2321;42.704;23.384;2023-03-19T11:55:30;95768.41;;;15.34;38.21
4617;BME280;2321;42.704;23.384;2023-03-19T11:58:25;95769.41;;;15.47;37.16
4617;BME280;2321;42.704;23.384;2023-03-19T12:00:55;95769.44;;;15.40;36.61
4617;BME280;2321;42.704;23.384;2023-03-19T12:03:50;95751.66;;;15.46;37.78
4617;BME280;2321;42.704;23.384;2023-03-19T12:06:35;95754.69;;;15.56;37.71
4617;BME280;2321;42.704;23.384;2023-03-19T12:09:13;95756.91;;;15.66;37.13
4617;BME280;2321;42.704;23.384;2023-03-19T12:11:51;95756.28;;;15.64;36.51
4617;BME280;2321;42.704;23.384;2023-03-19T12:14:33;95751.78;;;15.58;37.20
4617;BME280;2321;42.704;23.384;2023-03-19T12:17:16;95745.13;;;15.67;36.99
4617;BME280;2321;42.704;23.384;2023-03-19T12:22:46;95731.28;;;15.71;36.92
4617;BME280;2321;42.704;23.384;2023-03-19T12:25:25;95727.47;;;15.85;36.57
4617;BME280;2321;42.704;23.384;2023-03-19T12:28:00;95727.97;;;16.01;36.64
4617;BME280;2321;42.704;23.384;2023-03-19T12:30:33;95725.81;;;16.17;38.12
4617;BME280;2321;42.704;23.384;2023-03-19T12:33:10;95722.34;;;16.35;36.94
4617;BME280;2321;42.704;23.384;2023-03-19T12:35:40;95718.84;;;16.53;36.66
4617;BME280;2321;42.704;23.384;2023-03-19T12:38:15;95723.50;;;16.46;35.84
4617;BME280;2321;42.704;23.384;2023-03-19T12:40:47;95718.25;;;16.51;35.41
4617;BME280;2321;42.704;23.384;2023-03-19T12:43:22;95718.50;;;16.50;35.41
4617;BME280;2321;42.704;23.384;2023-03-19T12:45:55;95712.59;;;16.60;36.20
4617;BME280;2321;42.704;23.384;2023-03-19T12:48:27;95709.63;;;16.68;35.24
4617;BME280;2321;42.704;23.384;2023-03-19T12:51:00;95712.75;;;16.65;35.24
4617;BME280;2321;42.704;23.384;2023-03-19T12:53:39;95707.16;;;16.66;35.02
4617;BME280;2321;42.704;23.384;2023-03-19T12:56:13;95702.53;;;16.74;36.58
4617;BME280;2321;42.704;23.384;2023-03-19T12:58:52;95700.88;;;16.92;35.15
4617;BME280;2321;42.704;23.384;2023-03-19T13:01:23;95694.16;;;17.01;36.21
4617;BME280;2321;42.704;23.384;2023-03-19T13:03:55;95695.03;;;17.14;35.61
4617;BME280;2321;42.704;23.384;2023-03-19T13:06:27;95688.78;;;17.20;35.21
4617;BME280;2321;42.704;23.384;2023-03-19T13:09:02;95684.44;;;17.19;34.91
4617;BME280;2321;42.704;23.384;2023-03-19T13:11:35;95685.38;;;17.25;35.31
4617;BME280;2321;42.704;23.384;2023-03-19T13:14:14;95675.81;;;17.29;35.03
4617;BME280;2321;42.704;23.384;2023-03-19T13:16:49;95684.31;;;17.45;33.87
4617;BME280;2321;42.704;23.384;2023-03-19T13:19:23;95683.38;;;17.51;33.66
4617;BME280;2321;42.704;23.384;2023-03-19T13:21:56;95674.00;;;17.41;33.48
4617;BME280;2321;42.704;23.384;2023-03-19T13:24:26;95675.63;;;17.42;33.84
4617;BME280;2321;42.704;23.384;2023-03-19T13:26:55;95675.41;;;17.44;33.61
4617;BME280;2321;42.704;23.384;2023-03-19T13:29:27;95666.88;;;17.47;33.88